Fresno, CA

3:32 AM PST on December 04, 2016 (GMT -0800)
University Portals | | Change Station

Elev 338 ft 36.82 °N, 119.76 °W | Updated 1 minute ago

Clear
Clear
32.9 °F
Feels Like 33 °F
N
0.0
Wind Variable Wind from NNE

Today
High -- | Low -- °F
--% Chance of Precip.
Yesterday
High -- | Low -- °F
Precip. -- in
Pressure 30.21 in
Visibility 4.0 miles
Clouds Clear
Windchill 33 °F
Dew Point 33 °F
Humidity 99%
Rainfall 0.00 in
Snow Depth Not available.
6:56 AM 4:42 PM
Waxing Crescent, 22% visible
METAR KFAT 041053Z 00000KT 4SM BR CLR 03/01 A3020 RMK AO2 SLP228 T00330011
Pressure 30.21 in
Visibility 4.0 miles
Clouds Clear
Windchill 33 °F
Dew Point 33 °F
Humidity 99%
Rainfall 0.00 in
Snow Depth Not available.
6:56 AM 4:42 PM
Waxing Crescent, 22% visible
METAR KFAT 041053Z 00000KT 4SM BR CLR 03/01 A3020 RMK AO2 SLP228 T00330011

10-Day Weather Forecast

Almanac

Astronomy

Dec. 04, 2016 Rise Set
Actual Time
Civil Twilight
Nautical Twilight
Astronomical Twilight
Moon
Length of Visible Light
Length of Day
Tomorrow will be .
, % of the Moon is Illuminated

Today's Extremes

State Highs State Lows

Community

WunderPhotos

Upload Photos

1,955,593 photos uploaded!

WunderBlog® & News

Nearby

Air Quality

  Air Quality AQ Index Pollutant
Not available.

Snow Depth

Station Depth Elevation

Earthquake Activity

City Distance Mag. Time & Date
Minimum magnitude displayed is 2.5.

Coastal Water Temperatures

Place Temperature

Stations

Nearby Weather Stations

Station Location Temp. Windchill Dew Point Humidity Wind Precip. Elev Updated Type
                   

Watches & Warnings

There are currently no watches in effect.